Time;durP1;ratioP1;P1;durP2;ratioP2;P2;SDS_P1;SDS_P2;PMS_P1;PMS_P2;Temp;Humidity;BMP_temperature;BMP_pressure;BME280_temperature;BME280_humidity;BME280_pressure;Samples;Min_cycle;Max_cycle;Signal;HPM_P1;HPM_P2
2023/03/21 00:01:46;;;;;;;1.02;0.40;;;19.90;62.80;;;;;;4932452;29;20506;-67
2023/03/21 00:04:15;;;;;;;0.88;0.50;;;19.90;62.90;;;;;;4903408;29;20059;-67
2023/03/21 00:06:42;;;;;;;0.60;0.20;;;19.90;62.90;;;;;;4908964;29;20059;-67
2023/03/21 00:09:09;;;;;;;0.60;0.20;;;19.80;63.60;;;;;;4928057;29;20127;-67
2023/03/21 00:11:36;;;;;;;0.77;0.55;;;19.90;63.10;;;;;;4888162;29;20058;-67
2023/03/21 00:14:03;;;;;;;0.88;0.13;;;19.80;63.10;;;;;;4923837;29;20428;-67
2023/03/21 00:16:30;;;;;;;0.65;0.30;;;19.80;63.70;;;;;;4889961;29;20494;-67
2023/03/21 00:18:57;;;;;;;1.00;0.50;;;19.70;63.10;;;;;;4895443;29;20139;-67
2023/03/21 00:21:31;;;;;;;0.65;0.30;;;19.70;63.20;;;;;;4915304;29;20051;-67
2023/03/21 00:23:58;;;;;;;0.73;0.38;;;19.70;63.20;;;;;;4898382;29;20059;-67
2023/03/21 00:26:26;;;;;;;1.20;0.32;;;19.60;63.20;;;;;;4927407;29;20055;-67
2023/03/21 00:28:53;;;;;;;0.60;0.13;;;19.60;63.20;;;;;;4916947;29;20154;-67
2023/03/21 00:31:20;;;;;;;0.85;0.52;;;19.60;63.30;;;;;;4906651;29;20119;-66
2023/03/21 00:33:47;;;;;;;0.80;0.40;;;19.60;63.30;;;;;;4897799;29;20137;-67
2023/03/21 00:36:14;;;;;;;0.98;0.40;;;19.60;63.30;;;;;;4893206;29;20060;-67
2023/03/21 00:38:43;;;;;;;1.00;0.63;;;19.50;63.30;;;;;;4879577;29;20155;-67
2023/03/21 00:41:13;;;;;;;0.63;0.13;;;19.50;63.40;;;;;;4897328;29;20222;-67
2023/03/21 00:43:40;;;;;;;1.00;0.55;;;19.50;63.40;;;;;;4920458;29;20122;-66
2023/03/21 00:46:07;;;;;;;0.52;0.13;;;19.50;63.40;;;;;;4906740;29;20053;-67
2023/03/21 00:48:34;;;;;;;0.70;0.32;;;19.50;63.50;;;;;;4895950;29;20064;-67
2023/03/21 00:51:01;;;;;;;0.88;0.47;;;19.40;63.40;;;;;;4893471;29;20055;-67
2023/03/21 00:53:28;;;;;;;0.80;0.50;;;19.40;63.40;;;;;;4916981;29;20051;-67
2023/03/21 00:55:57;;;;;;;0.70;0.40;;;19.40;63.50;;;;;;4882452;29;1131229;-67
2023/03/21 00:58:25;;;;;;;0.70;0.13;;;19.40;63.50;;;;;;4885610;29;20052;-67
2023/03/21 01:00:51;;;;;;;0.82;0.25;;;19.40;63.40;;;;;;4881309;29;20063;-67
2023/03/21 01:03:19;;;;;;;0.82;0.50;;;19.40;63.40;;;;;;4911471;29;20088;-67
2023/03/21 01:06:04;;;;;;;0.55;0.22;;;19.50;63.40;;;;;;4915308;29;20417;-67
2023/03/21 01:08:32;;;;;;;0.80;0.40;;;19.40;63.30;;;;;;4920319;29;20052;-67
2023/03/21 01:11:04;;;;;;;0.52;0.22;;;19.50;63.30;;;;;;4917178;29;20051;-67
2023/03/21 01:13:31;;;;;;;0.90;0.30;;;19.60;63.20;;;;;;4917475;29;20056;-67
2023/03/21 01:15:58;;;;;;;0.82;0.30;;;19.60;63.10;;;;;;4920196;29;20545;-67
2023/03/21 01:18:28;;;;;;;0.47;0.13;;;19.60;63.00;;;;;;4897872;29;20056;-66
2023/03/21 01:20:56;;;;;;;;;;;19.70;63.00;;;;;;4898942;29;20060;-67
2023/03/21 01:23:23;;;;;;;0.55;0.25;;;19.70;62.90;;;;;;4904239;29;19923;-67
2023/03/21 01:25:52;;;;;;;0.73;0.15;;;19.80;62.70;;;;;;4917066;29;20070;-67
2023/03/21 01:28:21;;;;;;;0.90;0.50;;;19.90;62.60;;;;;;4915084;29;20474;-67
2023/03/21 01:30:50;;;;;;;0.68;0.22;;;19.90;62.60;;;;;;4911454;29;20049;-67
2023/03/21 01:33:18;;;;;;;0.63;0.10;;;20.00;62.50;;;;;;4903367;29;20095;-67
2023/03/21 01:35:45;;;;;;;0.93;0.22;;;20.10;62.40;;;;;;4931857;29;20052;-67
2023/03/21 01:38:12;;;;;;;0.47;0.22;;;20.10;62.30;;;;;;4933757;29;20056;-67
2023/03/21 01:40:41;;;;;;;0.80;0.80;;;20.20;62.30;;;;;;4929297;29;20040;-67
2023/03/21 01:43:24;;;;;;;0.77;0.63;;;20.20;62.20;;;;;;4915218;29;20140;-67
2023/03/21 01:46:36;;;;;;;0.68;0.10;;;20.20;62.20;;;;;;4914617;29;20462;-67
2023/03/21 01:49:07;;;;;;;1.08;0.50;;;20.20;62.30;;;;;;4927082;29;20060;-67
2023/03/21 01:51:37;;;;;;;0.80;0.60;;;20.20;62.20;;;;;;4892911;29;20128;-67
2023/03/21 01:54:07;;;;;;;0.73;0.22;;;20.20;62.30;;;;;;4879822;29;20052;-67
2023/03/21 01:56:37;;;;;;;0.68;0.40;;;20.20;62.40;;;;;;4909183;29;20056;-67
2023/03/21 01:59:11;;;;;;;0.70;0.13;;;20.10;62.40;;;;;;4913589;29;20481;-67
2023/03/21 02:01:41;;;;;;;0.82;0.13;;;20.10;62.40;;;;;;4914524;29;20394;-67
2023/03/21 02:04:07;;;;;;;;;;;20.10;62.40;;;;;;4929477;29;20511;-67
2023/03/21 02:06:43;;;;;;;0.47;0.13;;;20.00;62.30;;;;;;4912000;29;19922;-67
2023/03/21 02:09:15;;;;;;;0.90;0.32;;;20.00;62.50;;;;;;4913230;29;20067;-67
2023/03/21 02:11:45;;;;;;;0.75;0.20;;;20.00;62.50;;;;;;4902369;29;20059;-67
2023/03/21 02:14:16;;;;;;;0.82;0.38;;;19.90;62.50;;;;;;4894626;29;20139;-67
2023/03/21 02:16:52;;;;;;;0.70;0.22;;;19.90;62.60;;;;;;4913238;29;20490;-67
2023/03/21 02:19:29;;;;;;;;;;;19.90;62.60;;;;;;4896244;29;20052;-67
2023/03/21 02:22:50;;;;;;;0.55;0.10;;;19.90;62.60;;;;;;4922545;29;19974;-67
2023/03/21 02:25:47;;;;;;;0.82;0.22;;;19.80;62.70;;;;;;4908748;29;20428;-67
2023/03/21 02:28:22;;;;;;;0.75;0.22;;;19.80;62.70;;;;;;4921949;29;20083;-67
2023/03/21 02:31:25;;;;;;;0.90;0.30;;;19.80;62.80;;;;;;4922016;29;20052;-67
2023/03/21 02:34:31;;;;;;;0.90;0.22;;;19.70;62.80;;;;;;4900124;29;20387;-67
2023/03/21 02:37:10;;;;;;;1.15;0.60;;;19.70;62.80;;;;;;4887435;29;20513;-67
2023/03/21 02:39:49;;;;;;;1.10;0.60;;;19.70;62.90;;;;;;4911410;29;20054;-66
2023/03/21 02:42:21;;;;;;;0.57;0.30;;;19.60;62.80;;;;;;4893857;29;20139;-67
2023/03/21 02:44:58;;;;;;;1.20;0.60;;;19.60;63.00;;;;;;4894086;29;20056;-67
2023/03/21 02:47:29;;;;;;;1.13;0.40;;;19.60;63.00;;;;;;4924562;29;20074;-67
2023/03/21 02:50:03;;;;;;;0.60;0.20;;;19.50;63.00;;;;;;4914282;29;20052;-67
2023/03/21 02:52:35;;;;;;;0.88;0.25;;;19.50;63.00;;;;;;4918900;29;20114;-67
2023/03/21 02:55:04;;;;;;;1.02;0.45;;;19.50;63.00;;;;;;4932800;29;20059;-67
2023/03/21 02:57:33;;;;;;;0.90;0.35;;;19.50;63.10;;;;;;4911359;29;20428;-67
2023/03/21 03:00:05;;;;;;;1.17;0.22;;;19.50;63.20;;;;;;4922259;29;20052;-67
2023/03/21 03:02:33;;;;;;;0.85;0.20;;;19.50;63.20;;;;;;4915370;29;20044;-66
2023/03/21 03:05:00;;;;;;;0.52;0.13;;;19.40;63.10;;;;;;4895595;29;20148;-67
2023/03/21 03:07:40;;;;;;;0.57;0.22;;;19.40;63.70;;;;;;4890068;29;20147;-67
2023/03/21 03:10:29;;;;;;;1.63;0.22;;;19.40;63.20;;;;;;4913809;29;20493;-67
2023/03/21 03:13:07;;;;;;;0.70;0.30;;;19.40;63.20;;;;;;4914162;29;20060;-67
2023/03/21 03:15:44;;;;;;;0.77;0.32;;;19.40;63.20;;;;;;4908086;29;20103;-67
2023/03/21 03:18:19;;;;;;;1.30;0.55;;;19.40;63.20;;;;;;4886520;29;20060;-67
2023/03/21 03:20:54;;;;;;;0.93;0.80;;;19.40;63.20;;;;;;4913781;29;20052;-67
2023/03/21 03:23:29;;;;;;;0.75;0.40;;;19.40;63.10;;;;;;4925235;29;20051;-67
2023/03/21 03:26:02;;;;;;;1.05;0.22;;;19.40;63.20;;;;;;4925645;29;20075;-67
2023/03/21 03:28:33;;;;;;;1.13;0.40;;;19.50;63.10;;;;;;4913417;29;20059;-67
2023/03/21 03:31:02;;;;;;;0.82;0.20;;;19.60;63.00;;;;;;4896716;29;20059;-67
2023/03/21 03:33:30;;;;;;;1.58;1.00;;;19.60;62.90;;;;;;4913871;29;20048;-67
2023/03/21 03:35:59;;;;;;;1.00;0.40;;;19.60;62.80;;;;;;4913465;29;20067;-66
2023/03/21 03:38:29;;;;;;;1.73;0.50;;;19.70;62.80;;;;;;4908818;29;20571;-66
2023/03/21 03:41:02;;;;;;;0.57;0.13;;;19.80;62.70;;;;;;4897134;29;20104;-67
2023/03/21 03:43:34;;;;;;;0.70;0.30;;;19.80;62.60;;;;;;4881443;29;20088;-67
2023/03/21 03:46:09;;;;;;;0.68;0.13;;;19.90;62.50;;;;;;4895739;29;20552;-67
2023/03/21 03:48:45;;;;;;;0.70;0.43;;;20.00;62.50;;;;;;4906617;29;20048;-67
2023/03/21 03:51:20;;;;;;;0.70;0.22;;;20.00;62.30;;;;;;4900281;29;20056;-67
2023/03/21 03:53:53;;;;;;;0.73;0.20;;;20.10;62.20;;;;;;4899952;29;20067;-67
2023/03/21 03:56:21;;;;;;;0.40;0.10;;;20.20;62.20;;;;;;4916435;29;20066;-67
2023/03/21 03:58:48;;;;;;;0.80;0.50;;;20.20;62.10;;;;;;4893829;29;20576;-67
2023/03/21 04:01:16;;;;;;;0.32;0.13;;;20.20;62.10;;;;;;4917444;29;20112;-67
2023/03/21 04:03:47;;;;;;;0.45;0.15;;;20.20;62.00;;;;;;4916614;29;20063;-68
2023/03/21 04:06:13;;;;;;;0.45;0.25;;;20.20;62.10;;;;;;4900946;29;20096;-67
2023/03/21 04:08:40;;;;;;;0.57;0.28;;;20.20;62.10;;;;;;4892348;29;20075;-67
2023/03/21 04:11:10;;;;;;;0.82;0.52;;;20.20;62.10;;;;;;4916495;29;20048;-67
2023/03/21 04:13:37;;;;;;;0.90;0.50;;;20.20;62.10;;;;;;4899714;29;20504;-67
2023/03/21 04:16:04;;;;;;;1.00;0.15;;;20.20;62.20;;;;;;4916673;29;20059;-67
2023/03/21 04:18:31;;;;;;;0.32;0.15;;;20.10;62.20;;;;;;4921261;29;20052;-67
2023/03/21 04:20:58;;;;;;;0.52;0.22;;;20.10;62.30;;;;;;4899375;29;20469;-67
2023/03/21 04:23:25;;;;;;;1.08;0.40;;;20.10;62.40;;;;;;4899211;29;20056;-66
2023/03/21 04:25:52;;;;;;;0.40;0.22;;;20.00;62.30;;;;;;4895416;29;20056;-67
2023/03/21 04:28:21;;;;;;;0.82;0.17;;;20.00;62.30;;;;;;4915915;29;20138;-67
2023/03/21 04:30:49;;;;;;;0.85;0.22;;;20.00;62.40;;;;;;4916159;29;20056;-67
2023/03/21 04:33:16;;;;;;;0.80;0.50;;;20.00;62.50;;;;;;4898787;29;20477;-67
2023/03/21 04:35:44;;;;;;;0.30;0.10;;;19.90;62.40;;;;;;4916074;29;20059;-67
2023/03/21 04:38:12;;;;;;;0.80;0.50;;;19.90;62.50;;;;;;4916135;29;20044;-67
2023/03/21 04:40:39;;;;;;;0.40;0.10;;;19.90;62.50;;;;;;4899128;29;20064;-67
2023/03/21 04:43:06;;;;;;;0.52;0.20;;;19.90;62.60;;;;;;4911762;29;20056;-67
2023/03/21 04:45:34;;;;;;;0.82;0.10;;;19.90;62.60;;;;;;4908309;29;20443;-67
2023/03/21 04:48:01;;;;;;;0.70;0.20;;;19.90;62.70;;;;;;4882588;29;20061;-67
2023/03/21 04:50:28;;;;;;;0.75;0.30;;;19.80;62.70;;;;;;4899028;29;20055;-67
2023/03/21 04:52:55;;;;;;;0.52;0.10;;;19.80;62.70;;;;;;4915966;29;20058;-67
2023/03/21 04:55:23;;;;;;;0.60;0.13;;;19.70;62.70;;;;;;4902923;29;20060;-67
2023/03/21 04:57:50;;;;;;;1.02;0.13;;;19.70;62.70;;;;;;4918508;29;20048;-67
2023/03/21 05:00:18;;;;;;;0.73;0.20;;;19.70;62.80;;;;;;4911122;29;20079;-67
2023/03/21 05:02:47;;;;;;;0.35;0.20;;;19.70;62.80;;;;;;4927548;29;20063;-66
2023/03/21 05:05:13;;;;;;;0.82;0.30;;;19.70;62.90;;;;;;4932645;29;20066;-67
2023/03/21 05:07:41;;;;;;;1.10;0.30;;;19.60;62.90;;;;;;4934104;29;20674;-67
2023/03/21 05:10:10;;;;;;;0.50;0.32;;;19.60;62.90;;;;;;4925489;29;20429;-67
2023/03/21 05:12:38;;;;;;;1.33;0.30;;;19.50;62.90;;;;;;4913403;29;20120;-67
2023/03/21 05:15:06;;;;;;;0.40;0.13;;;19.50;63.00;;;;;;4928563;29;20082;-66
2023/03/21 05:17:32;;;;;;;0.93;0.30;;;19.50;63.00;;;;;;4934398;29;20059;-67
2023/03/21 05:20:01;;;;;;;0.60;0.20;;;19.50;63.00;;;;;;4928342;29;20071;-67
2023/03/21 05:22:28;;;;;;;0.50;0.20;;;19.40;63.00;;;;;;4903080;29;20063;-67
2023/03/21 05:24:55;;;;;;;0.60;0.13;;;19.50;63.10;;;;;;4915193;29;20051;-67
2023/03/21 05:27:34;;;;;;;0.50;0.13;;;19.50;63.10;;;;;;4901429;29;20116;-66
2023/03/21 05:30:03;;;;;;;0.52;0.32;;;19.40;63.10;;;;;;4928455;29;20055;-67
2023/03/21 05:32:30;;;;;;;1.23;0.10;;;19.40;63.10;;;;;;4930011;29;20571;-67
2023/03/21 05:34:57;;;;;;;0.70;0.30;;;19.40;63.20;;;;;;4932615;29;20055;-67
2023/03/21 05:37:25;;;;;;;0.70;0.22;;;19.40;63.20;;;;;;4916015;29;20048;-67
2023/03/21 05:39:52;;;;;;;0.70;0.50;;;19.40;63.20;;;;;;4916540;29;20092;-67
2023/03/21 05:42:19;;;;;;;1.05;0.60;;;19.40;63.10;;;;;;4932954;29;20098;-66
2023/03/21 05:44:46;;;;;;;1.08;0.50;;;19.40;63.10;;;;;;4933882;29;20059;-67
2023/03/21 05:47:14;;;;;;;0.75;0.40;;;19.40;63.10;;;;;;4931582;29;20048;-67
2023/03/21 05:49:41;;;;;;;0.85;0.60;;;19.50;63.00;;;;;;4927057;29;20063;-67
2023/03/21 05:52:09;;;;;;;0.63;0.13;;;19.50;62.90;;;;;;4934016;29;20476;-67
2023/03/21 05:54:37;;;;;;;0.93;0.50;;;19.60;62.90;;;;;;4934066;29;20047;-67
2023/03/21 05:57:04;;;;;;;0.70;0.50;;;19.60;62.80;;;;;;4932718;29;20170;-67
2023/03/21 05:59:31;;;;;;;1.25;0.50;;;19.70;62.80;;;;;;4917496;29;20044;-67
2023/03/21 06:01:58;;;;;;;0.90;0.40;;;19.70;62.60;;;;;;4932452;28;20052;-67
2023/03/21 06:04:26;;;;;;;0.95;0.40;;;19.80;62.90;;;;;;4933234;29;20523;-66
2023/03/21 06:06:53;;;;;;;0.60;0.13;;;19.90;62.60;;;;;;4930515;29;20068;-66
2023/03/21 06:09:20;;;;;;;0.70;0.30;;;19.90;62.40;;;;;;4933714;29;20067;-67
2023/03/21 06:11:51;;;;;;;0.70;0.50;;;20.00;62.30;;;;;;4933655;29;20047;-66
2023/03/21 06:14:19;;;;;;;0.65;0.40;;;20.10;62.30;;;;;;4933627;29;20059;-66
2023/03/21 06:16:46;;;;;;;0.57;0.40;;;20.10;62.20;;;;;;4930120;29;20138;-67
2023/03/21 06:19:13;;;;;;;1.23;0.22;;;20.20;62.10;;;;;;4929053;29;20469;-67
2023/03/21 06:21:40;;;;;;;0.45;0.10;;;20.20;62.10;;;;;;4932008;29;20115;-66
2023/03/21 06:24:07;;;;;;;0.98;0.50;;;20.20;62.00;;;;;;4932202;29;20059;-67
2023/03/21 06:26:34;;;;;;;0.63;0.45;;;20.20;62.10;;;;;;4923159;29;20059;-67
2023/03/21 06:29:02;;;;;;;0.57;0.13;;;20.20;62.10;;;;;;4920557;29;20064;-67
2023/03/21 06:31:29;;;;;;;0.55;0.13;;;20.20;62.10;;;;;;4910342;29;20052;-67
2023/03/21 06:33:56;;;;;;;0.63;0.13;;;20.20;62.10;;;;;;4917361;29;20055;-67
2023/03/21 06:36:23;;;;;;;0.80;0.45;;;20.20;62.10;;;;;;4923394;29;20048;-66
2023/03/21 06:38:50;;;;;;;0.30;0.13;;;20.20;62.90;;;;;;4923284;29;20424;-66
2023/03/21 06:41:17;;;;;;;0.40;0.22;;;20.10;62.20;;;;;;4903276;29;20052;-67
2023/03/21 06:43:45;;;;;;;1.05;0.20;;;20.10;62.30;;;;;;4912342;29;20063;-67
2023/03/21 06:46:13;;;;;;;1.05;0.52;;;20.10;62.30;;;;;;4912860;29;20497;-67
2023/03/21 06:48:43;;;;;;;0.45;0.13;;;20.00;62.30;;;;;;4912882;29;20056;-66
2023/03/21 06:51:11;;;;;;;0.70;0.10;;;20.00;62.30;;;;;;4913737;29;20536;-67
2023/03/21 06:53:40;;;;;;;0.57;0.22;;;20.00;62.40;;;;;;4918164;29;20127;-67
2023/03/21 06:56:08;;;;;;;0.50;0.10;;;20.00;62.40;;;;;;4926707;29;20060;-67
2023/03/21 06:58:35;;;;;;;0.55;0.20;;;20.00;62.50;;;;;;4913991;29;20052;-67
2023/03/21 07:01:03;;;;;;;0.30;0.03;;;19.90;62.50;;;;;;4914104;29;20493;-66
2023/03/21 07:03:31;;;;;;;0.57;0.38;;;19.90;62.60;;;;;;4929671;29;20059;-66
2023/03/21 07:05:59;;;;;;;0.47;0.13;;;19.90;62.60;;;;;;4927520;29;20044;-66
2023/03/21 07:08:25;;;;;;;0.70;0.20;;;19.90;62.70;;;;;;4918059;29;20428;-67
2023/03/21 07:10:57;;;;;;;0.75;0.50;;;19.80;62.60;;;;;;4909799;29;20052;-67
2023/03/21 07:13:24;;;;;;;0.65;0.13;;;19.80;62.70;;;;;;4908578;29;20100;-66
2023/03/21 07:15:53;;;;;;;0.28;0.05;;;19.80;62.70;;;;;;4908012;29;20151;-67
2023/03/21 07:18:20;;;;;;;0.50;0.25;;;19.80;62.80;;;;;;4907686;29;20138;-66
2023/03/21 07:20:50;;;;;;;0.35;0.13;;;19.70;62.80;;;;;;4917526;29;20204;-67
2023/03/21 07:23:17;;;;;;;0.70;0.40;;;19.70;62.80;;;;;;4916051;29;20120;-66
2023/03/21 07:25:45;;;;;;;1.08;0.15;;;19.70;62.90;;;;;;4898947;29;20537;-67
2023/03/21 07:28:12;;;;;;;0.43;0.15;;;19.60;63.50;;;;;;4930551;29;20055;-67
2023/03/21 07:30:39;;;;;;;1.00;0.55;;;19.60;62.90;;;;;;4934211;29;20114;-67
2023/03/21 07:33:06;;;;;;;0.60;0.35;;;19.60;63.50;;;;;;4923940;29;22312;-66
2023/03/21 07:35:35;;;;;;;0.55;0.20;;;19.60;63.00;;;;;;4932039;29;20082;-66
2023/03/21 07:38:03;;;;;;;0.70;0.40;;;19.50;63.00;;;;;;4924622;29;20056;-68
2023/03/21 07:40:30;;;;;;;0.73;0.30;;;19.50;63.00;;;;;;4917064;29;20063;-67
2023/03/21 07:42:57;;;;;;;0.57;0.22;;;19.50;63.10;;;;;;4914075;29;20406;-66
2023/03/21 07:45:26;;;;;;;0.77;0.52;;;19.50;63.20;;;;;;4915312;29;20052;-67
2023/03/21 07:47:53;;;;;;;1.13;0.63;;;19.50;63.30;;;;;;4901753;29;20516;-67
2023/03/21 07:50:20;;;;;;;0.70;0.28;;;19.40;63.30;;;;;;4916640;29;20405;-67
2023/03/21 07:52:48;;;;;;;0.75;0.13;;;19.40;63.40;;;;;;4917056;29;20055;-67
2023/03/21 07:55:17;;;;;;;0.63;0.32;;;19.40;63.40;;;;;;4920931;29;20064;-67
2023/03/21 07:57:45;;;;;;;2.28;0.40;;;19.40;63.50;;;;;;4899630;29;20071;-67
2023/03/21 08:00:21;;;;;;;1.88;0.65;;;19.40;63.60;;;;;;4913373;29;20044;-68
2023/03/21 08:02:53;;;;;;;1.10;0.60;;;19.40;63.70;;;;;;4935454;29;20047;-68
2023/03/21 08:05:21;;;;;;;2.92;0.45;;;19.40;63.80;;;;;;4901252;29;20044;-69
2023/03/21 08:07:48;;;;;;;1.95;0.32;;;19.50;63.90;;;;;;4916536;29;20067;-69
2023/03/21 08:10:17;;;;;;;2.60;0.30;;;19.50;63.80;;;;;;4916680;29;20056;-68
2023/03/21 08:12:47;;;;;;;2.33;0.22;;;19.40;63.80;;;;;;4899831;29;20072;-68
2023/03/21 08:15:15;;;;;;;2.85;0.82;;;19.40;64.40;;;;;;4903294;29;20598;-68
2023/03/21 08:17:44;;;;;;;1.23;0.25;;;19.40;63.80;;;;;;4918300;29;20068;-69
2023/03/21 08:20:14;;;;;;;2.45;0.57;;;19.40;64.50;;;;;;4918118;29;20163;-69
2023/03/21 08:22:42;;;;;;;2.28;0.35;;;19.30;63.90;;;;;;4924712;29;20465;-69
2023/03/21 08:25:12;;;;;;;2.70;0.60;;;19.40;64.10;;;;;;4931802;29;20056;-69
2023/03/21 08:27:41;;;;;;;2.15;0.70;;;19.30;64.20;;;;;;4899296;29;20062;-69
2023/03/21 08:30:11;;;;;;;1.83;0.93;;;19.30;64.30;;;;;;4903581;29;20064;-69
2023/03/21 08:32:38;;;;;;;2.97;0.85;;;19.30;64.40;;;;;;4916199;29;20055;-69
2023/03/21 08:35:08;;;;;;;1.70;0.73;;;19.30;64.60;;;;;;4916540;29;20051;-69
2023/03/21 08:37:36;;;;;;;2.50;0.45;;;19.30;64.70;;;;;;4898893;29;20410;-69
2023/03/21 08:40:06;;;;;;;1.73;0.22;;;19.40;64.70;;;;;;4897213;29;20063;-69
2023/03/21 08:42:33;;;;;;;1.45;0.57;;;19.40;64.60;;;;;;4889043;29;20055;-69
2023/03/21 08:45:01;;;;;;;5.93;0.47;;;19.50;64.60;;;;;;4905147;29;20409;-69
2023/03/21 08:47:28;;;;;;;2.55;0.68;;;19.50;64.60;;;;;;4898872;29;20062;-69
2023/03/21 08:49:55;;;;;;;3.03;0.32;;;19.50;65.20;;;;;;4909413;29;20539;-69
2023/03/21 08:52:22;;;;;;;3.28;0.65;;;19.60;64.50;;;;;;4886250;29;20058;-69
2023/03/21 08:54:49;;;;;;;3.95;0.60;;;19.70;64.50;;;;;;4908575;29;20053;-69
2023/03/21 08:57:16;;;;;;;2.20;0.65;;;19.70;64.40;;;;;;4912059;29;20059;-69
2023/03/21 08:59:43;;;;;;;4.50;0.30;;;19.80;64.40;;;;;;4911226;29;20059;-68
2023/03/21 09:02:13;;;;;;;3.88;0.95;;;19.90;64.40;;;;;;4911251;29;20055;-69
2023/03/21 09:04:40;;;;;;;4.50;0.50;;;19.90;64.90;;;;;;4916373;29;20042;-71
2023/03/21 09:07:10;;;;;;;1.83;0.20;;;20.00;64.30;;;;;;4913403;29;20465;-80
2023/03/21 09:09:37;;;;;;;3.03;0.73;;;20.10;64.20;;;;;;4910173;29;20495;-70
2023/03/21 09:12:04;;;;;;;2.88;0.63;;;20.20;64.20;;;;;;4890290;29;20103;-71
2023/03/21 09:14:32;;;;;;;2.75;0.40;;;20.20;64.20;;;;;;4915995;29;20096;-76
2023/03/21 09:16:59;;;;;;;2.95;0.32;;;20.20;64.10;;;;;;4914537;29;20063;-77
2023/03/21 09:19:29;;;;;;;3.38;0.93;;;20.20;64.10;;;;;;4934439;29;20110;-75
2023/03/21 09:21:56;;;;;;;3.20;1.38;;;20.30;64.80;;;;;;4934462;29;20058;-76
2023/03/21 09:24:23;;;;;;;1.52;0.30;;;20.20;64.20;;;;;;4910532;29;20075;-77
2023/03/21 09:26:50;;;;;;;2.35;0.50;;;20.20;64.20;;;;;;4915210;29;20063;-76
2023/03/21 09:29:18;;;;;;;4.32;0.85;;;20.20;64.20;;;;;;4909890;29;20051;-71
2023/03/21 09:31:46;;;;;;;1.52;0.60;;;20.20;64.20;;;;;;4904873;29;20071;-71
2023/03/21 09:34:14;;;;;;;3.00;0.68;;;20.20;64.30;;;;;;4910767;29;20051;-72
2023/03/21 09:36:47;;;;;;;3.10;0.20;;;20.20;64.40;;;;;;4897851;29;20054;-72
2023/03/21 09:39:16;;;;;;;1.88;0.65;;;20.20;64.50;;;;;;4895134;29;20473;-70
2023/03/21 09:42:10;;;;;;;3.42;1.00;;;20.20;64.50;;;;;;4914510;29;20048;-70
2023/03/21 09:44:45;;;;;;;;;;;20.20;64.60;;;;;;4900046;29;20406;-71
2023/03/21 09:47:20;;;;;;;1.65;0.73;;;20.10;64.80;;;;;;4904833;29;19949;-71
2023/03/21 09:49:52;;;;;;;2.28;0.43;;;20.10;64.70;;;;;;4890195;29;20052;-71
2023/03/21 09:52:25;;;;;;;1.25;0.52;;;20.10;64.80;;;;;;4879710;29;20584;-70
2023/03/21 09:54:54;;;;;;;2.33;0.70;;;20.10;65.50;;;;;;4887700;29;20055;-71
2023/03/21 09:57:31;;;;;;;1.98;0.43;;;20.10;65.10;;;;;;4884109;29;20048;-71
2023/03/21 10:00:07;;;;;;;1.40;0.68;;;20.00;65.10;;;;;;4875240;29;20045;-71
2023/03/21 10:02:37;;;;;;;3.85;0.40;;;20.00;65.30;;;;;;4877714;29;20056;-71
2023/03/21 10:05:13;;;;;;;4.57;0.35;;;20.00;65.40;;;;;;4904514;29;20071;-71
2023/03/21 10:07:46;;;;;;;1.58;0.50;;;20.00;65.40;;;;;;4891436;29;20143;-71
2023/03/21 10:10:17;;;;;;;0.90;0.22;;;20.00;65.50;;;;;;4883358;29;20082;-70
2023/03/21 10:12:47;;;;;;;3.65;0.15;;;19.90;65.50;;;;;;4877023;29;20478;-72
2023/03/21 10:15:18;;;;;;;1.23;0.22;;;19.90;65.60;;;;;;4896766;29;20103;-72
2023/03/21 10:17:51;;;;;;;2.75;0.40;;;19.90;65.60;;;;;;4884459;29;20059;-71
2023/03/21 10:20:20;;;;;;;3.30;0.40;;;19.90;65.70;;;;;;4902355;29;20084;-71
2023/03/21 10:22:50;;;;;;;1.30;0.50;;;19.90;65.70;;;;;;4878624;29;20115;-72
2023/03/21 10:25:20;;;;;;;2.00;0.88;;;19.90;66.50;;;;;;4870868;29;20056;-71
2023/03/21 10:27:49;;;;;;;1.40;0.13;;;19.80;65.90;;;;;;4876769;29;20486;-72
2023/03/21 10:30:28;;;;;;;2.38;0.68;;;19.80;65.90;;;;;;4878586;29;20098;-72
2023/03/21 10:32:57;;;;;;;0.95;0.20;;;19.90;66.10;;;;;;4880850;29;22088;-72
2023/03/21 10:35:25;;;;;;;2.25;0.35;;;19.80;66.00;;;;;;4876532;29;20155;-73
2023/03/21 10:37:53;;;;;;;1.92;0.50;;;19.80;66.10;;;;;;4888689;29;20557;-72
2023/03/21 10:40:20;;;;;;;1.80;0.55;;;19.80;66.20;;;;;;4894220;29;20092;-72
2023/03/21 10:42:47;;;;;;;2.50;0.60;;;19.80;66.20;;;;;;4895357;29;20840;-72
2023/03/21 10:45:18;;;;;;;1.13;0.43;;;19.70;66.20;;;;;;4895027;29;20052;-71
2023/03/21 10:47:48;;;;;;;1.30;0.52;;;19.70;66.20;;;;;;4878889;29;20075;-72
2023/03/21 10:50:18;;;;;;;1.98;0.65;;;19.70;66.20;;;;;;4896761;29;20078;-72
2023/03/21 10:52:49;;;;;;;1.50;0.60;;;19.70;66.20;;;;;;4889440;29;20055;-72
2023/03/21 10:55:25;;;;;;;1.33;0.45;;;19.60;66.20;;;;;;4901738;29;20083;-72
2023/03/21 10:58:02;;;;;;;1.50;0.22;;;19.60;66.20;;;;;;4917966;29;20055;-72
2023/03/21 11:00:34;;;;;;;2.28;0.70;;;19.60;66.20;;;;;;4900402;29;20095;-72
2023/03/21 11:03:02;;;;;;;1.27;0.22;;;19.60;66.20;;;;;;4917243;29;20131;-72
2023/03/21 11:05:36;;;;;;;1.92;0.68;;;19.60;66.20;;;;;;4909022;29;20111;-72
2023/03/21 11:08:05;;;;;;;1.50;0.60;;;19.60;66.20;;;;;;4912654;29;20490;-71
2023/03/21 11:10:35;;;;;;;1.00;0.38;;;19.50;66.10;;;;;;4917571;29;20567;-72
2023/03/21 11:13:06;;;;;;;1.88;0.65;;;19.50;66.10;;;;;;4917802;29;20048;-72
2023/03/21 11:15:41;;;;;;;2.70;0.43;;;19.50;66.10;;;;;;4903008;29;20092;-72
2023/03/21 11:18:18;;;;;;;1.48;0.20;;;19.50;66.10;;;;;;4889769;29;20060;-72
2023/03/21 11:20:52;;;;;;;1.23;0.40;;;19.50;66.20;;;;;;4882250;29;20410;-72
2023/03/21 11:23:20;;;;;;;1.17;0.43;;;19.50;66.20;;;;;;4905481;29;20052;-72
2023/03/21 11:25:50;;;;;;;1.40;0.50;;;19.50;66.20;;;;;;4918381;29;20054;-71
2023/03/21 11:28:18;;;;;;;;;;;19.40;66.10;;;;;;4937104;29;20070;-71
2023/03/21 11:30:57;;;;;;;2.75;0.70;;;19.40;66.10;;;;;;4911960;29;19938;-71
2023/03/21 11:33:29;;;;;;;5.82;0.85;;;19.40;66.10;;;;;;4907170;29;20049;-72
2023/03/21 11:36:01;;;;;;;2.35;0.73;;;19.40;66.10;;;;;;4881932;29;20095;-70
2023/03/21 11:38:33;;;;;;;1.30;0.22;;;19.40;66.10;;;;;;4899924;29;20048;-72
2023/03/21 11:41:03;;;;;;;2.13;0.38;;;19.40;66.10;;;;;;4916437;29;20048;-72
2023/03/21 11:43:31;;;;;;;1.42;0.43;;;19.40;66.10;;;;;;4889885;29;20048;-72
2023/03/21 11:46:00;;;;;;;2.88;0.32;;;19.40;66.10;;;;;;4913506;29;20058;-72
2023/03/21 11:48:28;;;;;;;1.83;0.50;;;19.40;66.10;;;;;;4916204;29;20408;-73
2023/03/21 11:51:02;;;;;;;1.85;0.32;;;19.40;66.10;;;;;;4916251;29;20056;-72
2023/03/21 11:53:38;;;;;;;1.45;0.40;;;19.40;66.10;;;;;;4917051;29;20527;-71
2023/03/21 11:56:22;;;;;;;1.40;0.30;;;19.40;66.10;;;;;;4903591;29;20448;-72
2023/03/21 11:59:22;;;;;;;1.10;0.57;;;19.40;66.10;;;;;;4916863;29;20060;-71
2023/03/21 12:02:04;;;;;;;1.20;0.50;;;19.40;66.10;;;;;;4895788;29;20135;-72
2023/03/21 12:04:40;;;;;;;2.50;0.60;;;19.40;66.10;;;;;;4897832;29;20088;-71
2023/03/21 12:07:26;;;;;;;2.00;0.60;;;19.40;66.00;;;;;;4901947;29;20059;-71
2023/03/21 12:10:02;;;;;;;1.40;0.77;;;19.40;66.00;;;;;;4916027;29;20123;-71
2023/03/21 12:12:40;;;;;;;1.95;0.82;;;19.40;66.00;;;;;;4916833;29;20087;-71
2023/03/21 12:15:17;;;;;;;1.02;0.57;;;19.40;66.00;;;;;;4916516;29;20075;-71
2023/03/21 12:17:56;;;;;;;1.45;0.68;;;19.50;66.00;;;;;;4916449;29;20497;-72
2023/03/21 12:20:36;;;;;;;1.70;0.60;;;19.50;66.00;;;;;;4914428;29;20060;-71
2023/03/21 12:23:19;;;;;;;1.60;0.30;;;19.40;65.90;;;;;;4915210;29;20409;-71
2023/03/21 12:25:53;;;;;;;1.35;0.63;;;19.40;65.90;;;;;;4916340;29;20059;-71
2023/03/21 12:28:34;;;;;;;2.47;0.60;;;19.50;66.00;;;;;;4915344;29;20103;-72
2023/03/21 12:31:07;;;;;;;2.08;0.40;;;19.40;65.90;;;;;;4910257;29;20056;-72
2023/03/21 12:33:56;;;;;;;3.22;1.02;;;19.50;65.90;;;;;;4911850;29;20068;-71
2023/03/21 12:36:47;;;;;;;1.00;0.32;;;19.40;65.90;;;;;;4911538;29;20151;-71
2023/03/21 12:39:26;;;;;;;1.02;0.57;;;19.50;66.00;;;;;;4897077;29;20067;-72
2023/03/21 12:42:04;;;;;;;1.55;0.68;;;19.40;65.90;;;;;;4912549;29;20650;-72
2023/03/21 12:44:35;;;;;;;1.58;0.63;;;19.40;65.80;;;;;;4912667;29;20051;-71
2023/03/21 12:47:07;;;;;;;2.70;1.00;;;19.50;65.90;;;;;;4914292;29;20055;-71
2023/03/21 12:49:38;;;;;;;1.48;0.73;;;19.50;65.90;;;;;;4913087;29;20052;-71
2023/03/21 12:52:09;;;;;;;2.70;0.68;;;19.40;65.80;;;;;;4913580;29;20055;-71
2023/03/21 12:54:39;;;;;;;1.67;0.77;;;19.50;65.90;;;;;;4915175;29;20055;-72
2023/03/21 12:57:13;;;;;;;1.60;0.35;;;19.50;65.80;;;;;;4915025;29;20454;-71
2023/03/21 12:59:48;;;;;;;3.17;0.77;;;19.40;65.80;;;;;;4897961;29;20071;-71
2023/03/21 13:02:22;;;;;;;1.75;0.60;;;19.40;65.80;;;;;;4887705;29;20048;-71
2023/03/21 13:05:03;;;;;;;1.15;0.22;;;19.40;65.80;;;;;;4898153;29;20143;-71
2023/03/21 13:07:33;;;;;;;1.40;0.63;;;19.40;65.80;;;;;;4896819;29;20143;-72